Terminal Aerodrome Forecast
Issued by NWS Twin Cities, MN

Home | Current Version | Previous Version | Text Only | Print | Product List | Glossary On
Versions: 1 2 3 4 5 6 7 8 9 10 11 12 13 14 15 16 17 18
000
FTUS43 KMPX 100153 AAB
TAFEAU
TAF AMD
KEAU 100153Z 1002/1024 27007KT 2SM -SN BKN020 BKN120
     FM100500 28006KT P6SM BKN030 BKN120
     FM100700 29005KT P6SM FEW025 BKN120
     FM101700 VRB03KT P6SM SCT030 OVC090=

USA.gov is the U.S. government's official web portal to all federal, state and local government web resources and services.